Itapecerica, Brazil
Current Conditions -  °F | °C
As of 6:07 AM on Thursday 27 Nov 2014 (Local Time) from SBPR Reporting Station
Clear Clear  
Wind Chill: 68°   Ceiling: Unl
Heat Index: 68°   Visibility: 6mi
Dew Point: 66°   Wind: 0mph
Humidity: 94%   Direction: NA
Pressure: 30"   Gusts: NA
Location:  20.47°S, 45.13°W
Report Text: SBPR 270807Z 00000KT CAVOK 20/19 Q1016
Loading
Personal Weather Stations






























Interactive Weather Map New forecast layout! Learn more

10-Day Weather Forecast

Advertisements
Track Severe Weather on mobile